createdAt,value
2023-04-02T00:01:23.336Z,36.58
2023-04-02T00:04:01.997Z,31.83
2023-04-02T00:06:39.979Z,30.08
2023-04-02T00:09:23.448Z,34.88
2023-04-02T00:12:12.568Z,32.38
2023-04-02T00:14:39.631Z,38.58
2023-04-02T00:17:06.757Z,35.67
2023-04-02T00:19:58.081Z,38.22
2023-04-02T00:22:29.466Z,36.72
2023-04-02T00:24:57.203Z,33.13
2023-04-02T00:27:24.479Z,33.20
2023-04-02T00:30:01.279Z,38.70
2023-04-02T00:32:39.395Z,33.58
2023-04-02T00:35:25.084Z,37.55
2023-04-02T00:37:52.799Z,32.97
2023-04-02T00:40:31.644Z,36.17
2023-04-02T00:43:01.281Z,36.50
2023-04-02T00:45:39.817Z,32.83
2023-04-02T00:48:40.161Z,32.97
2023-04-02T00:51:32.390Z,31.38
2023-04-02T00:54:04.409Z,33.47
2023-04-02T00:56:42.491Z,26.77
2023-04-02T00:59:30.068Z,31.83
2023-04-02T01:02:17.349Z,33.05
2023-04-02T01:05:23.596Z,30.13
2023-04-02T01:08:18.435Z,33.38
2023-04-02T01:11:04.962Z,32.58
2023-04-02T01:14:08.966Z,27.23
2023-04-02T01:17:00.689Z,28.85
2023-04-02T01:19:52.720Z,28.42
2023-04-02T01:22:31.061Z,32.78
2023-04-02T01:24:58.688Z,29.58
2023-04-02T01:27:52.727Z,29.58
2023-04-02T01:30:21.306Z,32.33
2023-04-02T01:32:49.856Z,31.92
2023-04-02T01:35:17.603Z,29.17
2023-04-02T01:38:13.971Z,31.77
2023-04-02T01:40:58.782Z,32.42
2023-04-02T01:43:36.896Z,33.08
2023-04-02T01:46:26.104Z,31.35
2023-04-02T01:48:55.563Z,33.20
2023-04-02T01:51:51.676Z,33.42
2023-04-02T01:54:20.390Z,30.13
2023-04-02T01:56:47.799Z,35.13
2023-04-02T01:59:18.568Z,34.67
2023-04-02T02:02:12.603Z,30.75
2023-04-02T02:04:40.780Z,28.20
2023-04-02T02:07:19.344Z,29.63
2023-04-02T02:09:56.022Z,31.27
2023-04-02T02:12:23.031Z,31.45
2023-04-02T02:14:52.384Z,28.83
2023-04-02T02:17:47.972Z,26.80
2023-04-02T02:20:15.773Z,29.83
2023-04-02T02:23:09.442Z,32.25
2023-04-02T02:25:37.096Z,29.02
2023-04-02T02:28:29.908Z,28.50
2023-04-02T02:31:01.704Z,26.08
2023-04-02T02:33:37.365Z,28.23
2023-04-02T02:36:27.242Z,28.17
2023-04-02T02:39:24.254Z,25.05
2023-04-02T02:42:02.499Z,29.92
2023-04-02T02:44:41.931Z,29.83
2023-04-02T02:47:34.884Z,34.47
2023-04-02T02:50:08.832Z,35.38
2023-04-02T02:52:38.363Z,32.15
2023-04-02T02:55:30.085Z,34.22
2023-04-02T02:58:04.541Z,33.00
2023-04-02T03:00:32.124Z,32.70
2023-04-02T03:02:59.792Z,33.70
2023-04-02T03:05:29.283Z,37.70
2023-04-02T03:07:58.323Z,37.38
2023-04-02T03:11:19.630Z,34.72
2023-04-02T03:13:50.471Z,34.78
2023-04-02T03:16:43.180Z,33.67
2023-04-02T03:19:47.189Z,28.10
2023-04-02T03:22:30.053Z,33.00
2023-04-02T03:25:04.119Z,37.80
2023-04-02T03:27:38.390Z,29.67
2023-04-02T03:30:27.345Z,32.40
2023-04-02T03:33:14.444Z,34.78
2023-04-02T03:36:04.217Z,34.72
2023-04-02T03:38:54.076Z,31.48
2023-04-02T03:41:41.836Z,35.28
2023-04-02T03:44:26.256Z,32.25
2023-04-02T03:47:04.258Z,28.65
2023-04-02T03:49:39.965Z,28.77
2023-04-02T03:52:33.622Z,25.40
2023-04-02T03:55:02.737Z,24.13
2023-04-02T03:57:52.913Z,26.52
2023-04-02T04:00:35.697Z,25.60
2023-04-02T04:03:28.896Z,24.27
2023-04-02T04:06:08.496Z,23.40
2023-04-02T04:08:47.063Z,28.08
2023-04-02T04:11:17.362Z,24.73
2023-04-02T04:13:50.261Z,23.90
2023-04-02T04:16:22.636Z,23.08
2023-04-02T04:19:14.312Z,23.90
2023-04-02T04:21:45.219Z,22.40
2023-04-02T04:24:25.924Z,22.50
2023-04-02T04:27:09.618Z,19.45
2023-04-02T04:29:45.508Z,22.25
2023-04-02T04:32:27.792Z,24.23
2023-04-02T04:35:26.801Z,22.45
2023-04-02T04:38:17.189Z,23.40
2023-04-02T04:41:13.622Z,19.27
2023-04-02T04:44:03.627Z,15.75
2023-04-02T04:46:46.703Z,19.58
2023-04-02T04:49:26.335Z,15.45
2023-04-02T04:52:28.728Z,15.48
2023-04-02T04:54:55.567Z,15.73
2023-04-02T04:57:22.869Z,12.55
2023-04-02T05:00:07.084Z,15.18
2023-04-02T05:03:13.441Z,16.23
2023-04-02T05:05:41.552Z,14.93
2023-04-02T05:08:34.087Z,13.80
2023-04-02T05:11:11.741Z,13.82
2023-04-02T05:14:12.566Z,14.27
2023-04-02T05:16:48.982Z,13.43
2023-04-02T05:19:44.395Z,12.02
2023-04-02T05:22:26.256Z,10.95
2023-04-02T05:25:10.415Z,9.65
2023-04-02T05:30:16.096Z,9.30
2023-04-02T05:32:58.857Z,9.98
2023-04-02T05:35:34.108Z,7.63
2023-04-02T05:38:02.089Z,7.00
2023-04-02T05:41:06.301Z,6.22
2023-04-02T05:43:37.222Z,5.65
2023-04-02T05:46:15.425Z,5.72
2023-04-02T05:48:44.581Z,6.80
2023-04-02T05:51:24.438Z,5.57
2023-04-02T05:54:16.200Z,3.90
2023-04-02T05:56:47.296Z,4.45
2023-04-02T05:59:22.963Z,5.35
2023-04-02T06:02:03.585Z,4.85
2023-04-02T06:04:36.927Z,5.65
2023-04-02T06:07:23.854Z,5.13
2023-04-02T06:10:00.386Z,3.38
2023-04-02T06:12:55.526Z,3.47
2023-04-02T06:15:24.546Z,3.60
2023-04-02T06:18:15.090Z,3.05
2023-04-02T06:20:42.035Z,7.32
2023-04-02T06:23:23.468Z,4.90
2023-04-02T06:26:19.198Z,4.60
2023-04-02T06:29:02.566Z,3.60
2023-04-02T06:31:59.846Z,4.32
2023-04-02T06:34:29.051Z,5.25
2023-04-02T06:37:16.807Z,3.67
2023-04-02T06:39:44.301Z,4.13
2023-04-02T06:42:16.340Z,5.68
2023-04-02T06:44:43.752Z,3.90
2023-04-02T06:47:33.521Z,4.50
2023-04-02T06:50:27.036Z,3.47
2023-04-02T06:53:09.762Z,3.38
2023-04-02T06:55:58.399Z,3.08
2023-04-02T06:58:25.186Z,2.67
2023-04-02T07:00:52.433Z,3.03
2023-04-02T07:03:26.112Z,3.45
2023-04-02T07:05:53.793Z,2.97
2023-04-02T07:08:20.935Z,3.35
2023-04-02T07:10:48.201Z,2.85
2023-04-02T07:13:17.634Z,2.60
2023-04-02T07:15:51.244Z,3.55
2023-04-02T07:18:26.926Z,4.13
2023-04-02T07:20:54.561Z,4.40
2023-04-02T07:23:21.637Z,4.75
2023-04-02T07:25:50.565Z,2.33
2023-04-02T07:28:18.049Z,3.03
2023-04-02T07:30:45.753Z,2.83
2023-04-02T07:33:17.686Z,2.35
2023-04-02T07:35:45.449Z,2.70
2023-04-02T07:38:12.473Z,3.30
2023-04-02T07:40:39.831Z,6.00
2023-04-02T07:43:07.302Z,3.00
2023-04-02T07:45:42.381Z,2.63
2023-04-02T07:48:18.360Z,2.83
2023-04-02T07:50:45.933Z,3.15
2023-04-02T07:53:32.019Z,2.60
2023-04-02T07:56:02.136Z,2.92
2023-04-02T07:58:38.307Z,2.63
2023-04-02T08:01:13.722Z,2.42
2023-04-02T08:03:41.730Z,2.45
2023-04-02T08:06:08.996Z,2.55
2023-04-02T08:08:37.967Z,2.53
2023-04-02T08:11:06.108Z,3.03
2023-04-02T08:13:33.217Z,1.88
2023-04-02T08:16:01.693Z,3.03
2023-04-02T08:18:29.660Z,4.13
2023-04-02T08:20:58.933Z,2.08
2023-04-02T08:23:27.187Z,2.78
2023-04-02T08:25:55.219Z,3.00
2023-04-02T08:28:22.996Z,2.60
2023-04-02T08:30:50.420Z,2.67
2023-04-02T08:33:18.136Z,4.03
2023-04-02T08:35:49.934Z,4.90
2023-04-02T08:38:26.749Z,3.88
2023-04-02T08:41:01.477Z,4.10
2023-04-02T08:43:36.818Z,3.00
2023-04-02T08:46:25.918Z,3.78
2023-04-02T08:49:00.764Z,4.80
2023-04-02T08:51:32.725Z,5.32
2023-04-02T08:54:09.563Z,4.70
2023-04-02T08:56:42.089Z,4.28
2023-04-02T08:59:36.365Z,6.13
2023-04-02T09:02:03.464Z,5.57
2023-04-02T09:04:31.701Z,6.63
2023-04-02T09:07:00.782Z,4.45
2023-04-02T09:09:28.475Z,5.82
2023-04-02T09:12:03.679Z,5.95
2023-04-02T09:15:05.209Z,5.28
2023-04-02T09:17:50.717Z,6.40
2023-04-02T09:20:29.488Z,4.97
2023-04-02T09:22:57.641Z,6.97
2023-04-02T09:25:29.869Z,6.85
2023-04-02T09:28:01.152Z,8.85
2023-04-02T09:30:46.902Z,7.57
2023-04-02T09:33:14.008Z,5.70
2023-04-02T09:35:50.150Z,7.38
2023-04-02T09:38:22.386Z,8.25
2023-04-02T09:41:00.841Z,7.75
2023-04-02T09:43:39.254Z,7.18
2023-04-02T09:46:18.427Z,11.13
2023-04-02T09:48:55.956Z,10.80
2023-04-02T09:51:29.977Z,10.43
2023-04-02T09:54:03.363Z,10.80
2023-04-02T09:56:40.206Z,9.30
2023-04-02T09:59:13.426Z,10.05
2023-04-02T10:01:45.659Z,7.80
2023-04-02T10:04:45.444Z,6.47
2023-04-02T10:07:43.912Z,7.13
2023-04-02T10:10:53.078Z,5.68
2023-04-02T10:13:38.730Z,6.63
2023-04-02T10:16:15.615Z,5.47
2023-04-02T10:18:56.275Z,6.40
2023-04-02T10:21:28.419Z,7.53
2023-04-02T10:23:58.350Z,7.22
2023-04-02T10:26:43.742Z,6.10
2023-04-02T10:29:46.501Z,8.15
2023-04-02T10:32:38.548Z,8.23
2023-04-02T10:35:08.915Z,5.63
2023-04-02T10:37:55.989Z,7.13
2023-04-02T10:40:51.909Z,7.00
2023-04-02T10:43:22.221Z,7.30
2023-04-02T10:46:14.885Z,6.78
2023-04-02T10:49:11.105Z,16.73
2023-04-02T10:51:43.910Z,9.55
2023-04-02T10:54:22.993Z,9.27
2023-04-02T10:57:26.077Z,7.70
2023-04-02T11:00:16.796Z,10.13
2023-04-02T11:03:06.142Z,7.68
2023-04-02T11:05:48.093Z,9.60
2023-04-02T11:08:43.411Z,10.27
2023-04-02T11:11:18.602Z,7.82
2023-04-02T11:13:57.334Z,9.18
2023-04-02T11:16:25.165Z,10.88
2023-04-02T11:19:16.924Z,11.55
2023-04-02T11:22:02.602Z,9.25
2023-04-02T11:24:34.090Z,10.25
2023-04-02T11:27:11.789Z,10.40
2023-04-02T11:30:00.249Z,13.20
2023-04-02T11:32:40.109Z,11.98
2023-04-02T11:35:31.915Z,13.90
2023-04-02T11:38:00.622Z,13.50
2023-04-02T11:40:46.434Z,13.85
2023-04-02T11:43:36.007Z,16.98
2023-04-02T11:46:26.766Z,10.85
2023-04-02T11:49:14.842Z,12.00
2023-04-02T11:51:46.385Z,12.00
2023-04-02T11:54:26.398Z,12.60
2023-04-02T11:57:03.473Z,12.35
2023-04-02T12:00:01.493Z,10.60
2023-04-02T12:03:03.567Z,12.57
2023-04-02T12:05:37.727Z,13.82
2023-04-02T12:08:16.958Z,10.75
2023-04-02T12:10:52.724Z,11.45
2023-04-02T12:13:21.897Z,11.73
2023-04-02T12:15:55.847Z,10.07
2023-04-02T12:18:24.376Z,11.02
2023-04-02T12:21:02.032Z,10.07
2023-04-02T12:23:31.512Z,12.00
2023-04-02T12:26:06.678Z,13.52
2023-04-02T12:28:34.686Z,13.50
2023-04-02T12:31:09.165Z,18.02
2023-04-02T12:33:38.295Z,16.80
2023-04-02T12:36:27.462Z,19.13
2023-04-02T12:38:56.636Z,14.07
2023-04-02T12:41:42.806Z,13.27
2023-04-02T12:44:18.504Z,11.45
2023-04-02T12:46:47.987Z,10.43
2023-04-02T12:49:29.065Z,16.60
2023-04-02T12:51:57.030Z,13.07
2023-04-02T12:54:24.123Z,15.70
2023-04-02T12:56:51.726Z,15.13
2023-04-02T12:59:29.722Z,14.98
2023-04-02T13:02:02.603Z,20.10
2023-04-02T13:04:29.803Z,16.88
2023-04-02T13:06:57.211Z,13.20
2023-04-02T13:09:43.762Z,13.73
2023-04-02T13:12:55.991Z,15.90
2023-04-02T13:15:49.778Z,16.77
2023-04-02T13:18:20.512Z,13.88
2023-04-02T13:21:03.062Z,12.82
2023-04-02T13:23:30.351Z,14.68
2023-04-02T13:26:00.955Z,12.57
2023-04-02T13:28:29.083Z,10.90
2023-04-02T13:30:55.948Z,13.90
2023-04-02T13:33:23.264Z,12.18
2023-04-02T13:35:50.149Z,16.50
2023-04-02T13:38:17.481Z,12.90
2023-04-02T13:40:44.560Z,11.93
2023-04-02T13:43:20.030Z,11.93
2023-04-02T13:45:51.799Z,15.00
2023-04-02T13:48:19.077Z,12.25
2023-04-02T13:50:46.879Z,10.80
2023-04-02T13:53:29.492Z,11.90
2023-04-02T13:55:56.717Z,11.35
2023-04-02T13:58:23.807Z,13.98
2023-04-02T14:00:50.725Z,13.05
2023-04-02T14:03:22.050Z,12.68
2023-04-02T14:05:58.264Z,12.75
2023-04-02T14:08:47.807Z,10.75
2023-04-02T14:11:48.973Z,7.00
2023-04-02T14:14:48.877Z,8.82
2023-04-02T14:17:27.712Z,13.65
2023-04-02T14:20:10.892Z,9.02
2023-04-02T14:23:04.006Z,12.40
2023-04-02T14:25:40.606Z,10.15
2023-04-02T14:28:23.788Z,9.80
2023-04-02T14:31:18.588Z,10.35
2023-04-02T14:33:51.238Z,10.10
2023-04-02T14:36:29.314Z,12.70
2023-04-02T14:38:56.188Z,9.50
2023-04-02T14:41:55.747Z,8.38
2023-04-02T14:44:25.460Z,8.43
2023-04-02T14:47:06.481Z,9.88
2023-04-02T14:49:46.216Z,8.63
2023-04-02T14:52:21.520Z,8.95
2023-04-02T14:54:59.217Z,9.35
2023-04-02T14:57:35.150Z,9.00
2023-04-02T15:00:21.014Z,8.10
2023-04-02T15:03:12.295Z,10.43
2023-04-02T15:06:03.670Z,8.07
2023-04-02T15:08:37.042Z,10.23
2023-04-02T15:11:43.492Z,8.35
2023-04-02T15:14:23.789Z,8.73
2023-04-02T15:17:10.550Z,7.25
2023-04-02T15:19:38.054Z,8.07
2023-04-02T15:22:28.902Z,11.40
2023-04-02T15:25:21.086Z,8.73
2023-04-02T15:28:09.906Z,9.73
2023-04-02T15:30:45.082Z,8.05
2023-04-02T15:33:30.683Z,9.30
2023-04-02T15:36:33.184Z,7.80
2023-04-02T15:39:30.721Z,7.38
2023-04-02T15:42:09.929Z,8.50
2023-04-02T15:45:05.419Z,6.93
2023-04-02T15:47:46.612Z,7.32
2023-04-02T15:51:06.557Z,7.35
2023-04-02T15:53:39.010Z,9.88
2023-04-02T15:56:28.927Z,8.55
2023-04-02T15:59:18.961Z,7.10
2023-04-02T16:02:24.528Z,5.68
2023-04-02T16:05:12.151Z,7.63
2023-04-02T16:07:41.718Z,6.93
2023-04-02T16:10:41.931Z,6.65
2023-04-02T16:13:53.997Z,6.00
2023-04-02T16:16:32.834Z,5.30
2023-04-02T16:19:17.196Z,6.57
2023-04-02T16:21:54.449Z,8.60
2023-04-02T16:24:21.540Z,7.07
2023-04-02T16:27:00.236Z,5.50
2023-04-02T16:30:05.412Z,5.10
2023-04-02T16:32:44.814Z,5.50
2023-04-02T16:35:49.913Z,6.55
2023-04-02T16:38:29.135Z,7.35
2023-04-02T16:41:29.376Z,7.63
2023-04-02T16:44:25.926Z,5.72
2023-04-02T16:47:20.807Z,5.03
2023-04-02T16:50:28.131Z,9.38
2023-04-02T16:53:06.970Z,8.98
2023-04-02T16:55:42.971Z,9.60
2023-04-02T16:58:51.479Z,12.65
2023-04-02T17:01:48.338Z,8.77
2023-04-02T17:04:48.052Z,7.50
2023-04-02T17:07:21.614Z,6.00
2023-04-02T17:09:54.137Z,9.05
2023-04-02T17:12:27.092Z,8.38
2023-04-02T17:15:09.322Z,7.78
2023-04-02T17:17:41.793Z,8.55
2023-04-02T17:20:28.917Z,6.40
2023-04-02T17:22:56.896Z,10.02
2023-04-02T17:25:28.150Z,8.52
2023-04-02T17:27:56.517Z,5.45
2023-04-02T17:30:41.302Z,6.80
2023-04-02T17:33:18.324Z,7.47
2023-04-02T17:35:56.512Z,9.43
2023-04-02T17:38:48.478Z,8.75
2023-04-02T17:41:52.449Z,7.15
2023-04-02T17:45:00.934Z,9.45
2023-04-02T17:47:50.883Z,10.10
2023-04-02T17:53:29.579Z,7.88
2023-04-02T17:56:17.012Z,7.03
2023-04-02T17:59:11.772Z,9.27
2023-04-02T18:01:46.917Z,9.80
2023-04-02T18:04:38.888Z,9.23
2023-04-02T18:07:07.402Z,9.93
2023-04-02T18:09:43.090Z,11.45
2023-04-02T18:13:07.330Z,8.20
2023-04-02T18:15:57.224Z,11.52
2023-04-02T18:18:57.505Z,7.90
2023-04-02T18:21:51.354Z,7.85
2023-04-02T18:24:24.949Z,13.02
2023-04-02T18:27:47.332Z,9.57
2023-04-02T18:30:36.230Z,10.63
2023-04-02T18:33:09.517Z,9.25
2023-04-02T18:36:05.575Z,8.60
2023-04-02T18:38:47.669Z,9.65
2023-04-02T18:41:30.580Z,8.60
2023-04-02T18:44:31.678Z,7.75
2023-04-02T18:47:17.521Z,7.80
2023-04-02T18:49:51.976Z,8.20
2023-04-02T18:52:19.226Z,7.65
2023-04-02T18:54:55.483Z,8.35
2023-04-02T18:57:38.993Z,7.88
2023-04-02T19:00:12.204Z,8.45
2023-04-02T19:03:08.008Z,9.68
2023-04-02T19:05:35.208Z,9.52
2023-04-02T19:08:27.720Z,14.02
2023-04-02T19:11:17.476Z,9.02
2023-04-02T19:13:49.112Z,9.45
2023-04-02T19:16:25.029Z,9.10
2023-04-02T19:19:17.493Z,10.10
2023-04-02T19:22:05.601Z,9.63
2023-04-02T19:24:44.980Z,8.77
2023-04-02T19:27:20.678Z,9.52
2023-04-02T19:29:59.938Z,9.48
2023-04-02T19:32:35.830Z,8.02
2023-04-02T19:35:34.977Z,10.38
2023-04-02T19:38:24.066Z,10.32
2023-04-02T19:41:12.530Z,10.45
2023-04-02T19:43:40.014Z,9.75
2023-04-02T19:46:07.308Z,7.65
2023-04-02T19:49:09.377Z,10.95
2023-04-02T19:51:36.783Z,10.27
2023-04-02T19:54:04.691Z,9.05
2023-04-02T19:56:31.954Z,8.85
2023-04-02T19:59:02.332Z,10.32
2023-04-02T20:01:32.322Z,8.75
2023-04-02T20:03:59.274Z,10.32
2023-04-02T20:06:27.255Z,10.98
2023-04-02T20:08:54.227Z,11.05
2023-04-02T20:11:21.533Z,10.82
2023-04-02T20:13:50.167Z,10.05
2023-04-02T20:16:17.400Z,8.88
2023-04-02T20:18:44.462Z,13.25
2023-04-02T20:21:11.763Z,11.43
2023-04-02T20:23:38.948Z,12.15
2023-04-02T20:26:06.624Z,11.70
2023-04-02T20:28:33.676Z,12.82
2023-04-02T20:31:34.197Z,12.20
2023-04-02T20:34:02.697Z,10.82
2023-04-02T20:36:30.128Z,10.80
2023-04-02T20:38:59.948Z,10.55
2023-04-02T20:41:27.575Z,9.68
2023-04-02T20:43:54.539Z,10.27
2023-04-02T20:46:22.937Z,10.23
2023-04-02T20:48:49.860Z,12.40
2023-04-02T20:51:17.530Z,10.93
2023-04-02T20:53:44.461Z,11.15
2023-04-02T20:56:23.480Z,10.93
2023-04-02T20:58:51.190Z,9.80
2023-04-02T21:01:27.136Z,10.20
2023-04-02T21:04:04.429Z,10.60
2023-04-02T21:06:34.290Z,10.52
2023-04-02T21:09:02.852Z,8.50
2023-04-02T21:11:30.286Z,10.20
2023-04-02T21:14:05.533Z,8.30
2023-04-02T21:16:35.782Z,9.63
2023-04-02T21:19:06.240Z,8.30
2023-04-02T21:21:36.214Z,8.75
2023-04-02T21:24:05.878Z,7.10
2023-04-02T21:26:36.598Z,7.97
2023-04-02T21:29:04.375Z,6.78
2023-04-02T21:31:54.797Z,7.95
2023-04-02T21:34:21.708Z,6.45
2023-04-02T21:36:56.867Z,7.43
2023-04-02T21:39:24.184Z,8.00
2023-04-02T21:41:54.796Z,6.03
2023-04-02T21:44:23.523Z,7.28
2023-04-02T21:46:53.024Z,6.72
2023-04-02T21:49:22.826Z,9.00
2023-04-02T21:51:51.819Z,7.70
2023-04-02T21:54:19.057Z,8.75
2023-04-02T21:56:47.196Z,8.68
2023-04-02T21:59:16.432Z,7.75
2023-04-02T22:01:49.109Z,9.68
2023-04-02T22:04:20.855Z,7.80
2023-04-02T22:06:48.753Z,10.32
2023-04-02T22:09:22.418Z,8.68
2023-04-02T22:12:00.379Z,9.55
2023-04-02T22:14:27.839Z,8.93
2023-04-02T22:16:55.365Z,9.35
2023-04-02T22:19:22.189Z,9.48
2023-04-02T22:21:49.528Z,7.10
2023-04-02T22:24:25.435Z,8.18
2023-04-02T22:26:52.705Z,11.00
2023-04-02T22:29:19.635Z,10.63
2023-04-02T22:31:47.007Z,9.93
2023-04-02T22:34:14.098Z,11.20
2023-04-02T22:36:41.413Z,11.98
2023-04-02T22:39:10.525Z,12.15
2023-04-02T22:41:38.554Z,13.75
2023-04-02T22:44:05.609Z,11.35
2023-04-02T22:46:32.805Z,11.38
2023-04-02T22:49:01.451Z,9.90
2023-04-02T22:51:29.517Z,8.82
2023-04-02T22:53:56.927Z,8.00
2023-04-02T22:56:27.692Z,9.52
2023-04-02T22:58:54.565Z,9.38
2023-04-02T23:01:25.770Z,10.45
2023-04-02T23:03:56.091Z,7.78
2023-04-02T23:06:24.348Z,11.63
2023-04-02T23:08:52.001Z,7.90
2023-04-02T23:11:22.342Z,8.38
2023-04-02T23:13:51.386Z,8.98
2023-04-02T23:16:18.760Z,11.00
2023-04-02T23:18:48.986Z,10.07
2023-04-02T23:21:17.986Z,8.43
2023-04-02T23:23:45.695Z,7.57
2023-04-02T23:26:21.922Z,11.15
2023-04-02T23:28:49.869Z,6.22
2023-04-02T23:31:19.590Z,8.50
2023-04-02T23:33:46.601Z,8.63
2023-04-02T23:36:19.186Z,7.43
2023-04-02T23:38:46.180Z,7.40
2023-04-02T23:41:23.788Z,5.90
2023-04-02T23:43:51.183Z,8.07
2023-04-02T23:46:18.263Z,9.13
2023-04-02T23:48:46.138Z,6.57
2023-04-02T23:51:14.169Z,8.40
2023-04-02T23:53:41.165Z,7.63
2023-04-02T23:56:08.241Z,7.78
2023-04-02T23:58:35.402Z,9.95
